Map

Track Data

SID SEASON NUMBER BASIN SUBBASIN NAME ISO_TIME NATURE LAT LON WMO_WIND WMO_PRES WMO_AGENCY TRACK_TYPE DIST2LAND LANDFALL IFLAG USA_AGENCY USA_ATCF_ID USA_LAT USA_LON USA_RECORD USA_STATUS USA_WIND USA_PRES USA_SSHS USA_R34_NE USA_R34_SE USA_R34_SW USA_R34_NW USA_R50_NE USA_R50_SE USA_R50_SW USA_R50_NW USA_R64_NE USA_R64_SE USA_R64_SW USA_R64_NW USA_POCI USA_ROCI USA_RMW USA_EYE TOKYO_LAT TOKYO_LON TOKYO_GRADE TOKYO_WIND TOKYO_PRES TOKYO_R50_DIR TOKYO_R50_LONG TOKYO_R50_SHORT TOKYO_R30_DIR TOKYO_R30_LONG TOKYO_R30_SHORT TOKYO_LAND CMA_LAT CMA_LON CMA_CAT CMA_WIND CMA_PRES HKO_LAT HKO_LON HKO_CAT HKO_WIND HKO_PRES NEWDELHI_LAT NEWDELHI_LON NEWDELHI_GRADE NEWDELHI_WIND NEWDELHI_PRES NEWDELHI_CI NEWDELHI_DP NEWDELHI_POCI REUNION_LAT REUNION_LON REUNION_TYPE REUNION_WIND REUNION_PRES REUNION_TNUM REUNION_CI REUNION_RMW REUNION_R34_NE REUNION_R34_SE REUNION_R34_SW REUNION_R34_NW REUNION_R50_NE REUNION_R50_SE REUNION_R50_SW REUNION_R50_NW REUNION_R64_NE REUNION_R64_SE REUNION_R64_SW REUNION_R64_NW BOM_LAT BOM_LON BOM_TYPE BOM_WIND BOM_PRES BOM_TNUM BOM_CI BOM_RMW BOM_R34_NE BOM_R34_SE BOM_R34_SW BOM_R34_NW BOM_R50_NE BOM_R50_SE BOM_R50_SW BOM_R50_NW BOM_R64_NE BOM_R64_SE BOM_R64_SW BOM_R64_NW BOM_ROCI BOM_POCI BOM_EYE BOM_POS_METHOD BOM_PRES_METHOD NADI_LAT NADI_LON NADI_CAT NADI_WIND NADI_PRES WELLINGTON_LAT WELLINGTON_LON WELLINGTON_WIND WELLINGTON_PRES DS824_LAT DS824_LON DS824_STAGE DS824_WIND DS824_PRES TD9636_LAT TD9636_LON TD9636_STAGE TD9636_WIND TD9636_PRES TD9635_LAT TD9635_LON TD9635_WIND TD9635_PRES TD9635_ROCI NEUMANN_LAT NEUMANN_LON NEUMANN_CLASS NEUMANN_WIND NEUMANN_PRES MLC_LAT MLC_LON MLC_CLASS MLC_WIND MLC_PRES USA_GUST BOM_GUST BOM_GUST_PER REUNION_GUST REUNION_GUST_PER USA_SEAHGT USA_SEARAD_NE USA_SEARAD_SE USA_SEARAD_SW USA_SEARAD_NW STORM_SPEED STORM_DIR
1957016S11162 1957 8 SP MM NOT_NAMED 1957-01-15 17:00:00 NR -11.3000 161.500 main 64 64 __________O___ -1 -11.3000 161.500 1 31 0 0
1957016S11162 1957 8 SP MM NOT_NAMED 1957-01-15 18:00:00 TS -11.3000 161.494 main 64 64 O_________P___ jtwc_sh SH131957 -11.3000 161.500 30 -1 -11.3000 161.489 1 29 1 270
1957016S11162 1957 8 SP MM NOT_NAMED 1957-01-15 21:00:00 TS -11.3000 161.446 main 71 71 P_________P___ SH131957 -11.3000 161.435 25 -1 -11.3000 161.460 1 25 1 270
1957016S11162 1957 8 SP MM NOT_NAMED 1957-01-15 23:00:00 TS -11.3000 161.431 1001 bom main 71 71 P_____O___P___ SH131957 -11.3000 161.406 21 -1 -11.3000 161.500 1001 -11.3000 161.450 1 23 0 0
1957016S11162 1957 8 SP MM NOT_NAMED 1957-01-16 00:00:00 TS -11.3001 161.432 main 71 71 O_____P__OP___ jtwc_sh SH131957 -11.3000 161.400 20 -1 -11.3010 161.495 1001 -11.3000 161.500 TC 30 1001 -11.3000 161.449 1 21 0 0
1957016S11162 1957 8 SP MM NOT_NAMED 1957-01-16 03:00:00 TS -11.3003 161.452 main 64 64 P_____P__PP___ SH131957 -11.3000 161.420 17 -1 -11.3023 161.489 1001 -11.2995 161.494 TC 30 1001 -11.3000 161.466 1 17 1 90
1957016S11162 1957 8 SP MM NOT_NAMED 1957-01-16 05:00:00 TS -11.3000 161.485 1001 bom main 64 64 P_____O__PO___ SH131957 -11.3000 161.467 15 -1 -11.3000 161.500 1001 -11.2997 161.496 TC 30 1001 -11.3000 161.500 1 15 1 89
1957016S11162 1957 8 SP MM NOT_NAMED 1957-01-16 06:00:00 TS -11.2994 161.509 main 64 60 O_____P__OP___ jtwc_sh SH131957 -11.3000 161.500 15 -1 -11.2975 161.513 -11.3000 161.500 TC 30 1001 -11.3000 161.525 1 2 88
1957016S11162 1957 8 SP MM NOT_NAMED 1957-01-16 09:00:00 TS -11.2963 161.623 main 60 56 P_____P___P___ SH131957 -11.3000 161.643 15 -1 -11.2853 161.579 TC -11.3000 161.627 1 2 88
1957016S11162 1957 8 SP MM NOT_NAMED 1957-01-16 12:00:00 TS -11.2923 161.760 main 56 56 O_____P___P___ jtwc_sh SH131957 -11.3000 161.800 15 -1 -11.2693 161.680 TC -11.3000 161.759 1 3 88
1957016S11162 1957 8 SP MM NOT_NAMED 1957-01-16 15:00:00 TS -11.2883 161.878 main 56 56 P_____P___P___ SH131957 -11.3000 161.900 15 -1 -11.2534 161.807 TC -11.3000 161.904 1 2 88
1957016S11162 1957 8 SP MM NOT_NAMED 1957-01-16 17:00:00 TS -11.2862 161.957 main 56 56 P_____P___O___ SH131957 -11.3000 161.964 15 -1 -11.2449 161.902 TC -11.3000 162.000 1 2 88
1957016S11162 1957 8 SP MM NOT_NAMED 1957-01-16 18:00:00 TS -11.2845 161.999 main 56 56 O_____P___P___ jtwc_sh SH131957 -11.3000 162.000 15 -1 -11.2418 161.952 TC -11.2963 162.044 1 3 88
1957016S11162 1957 8 SP MM NOT_NAMED 1957-01-16 21:00:00 TS -11.2805 162.146 main 56 56 P_____P___P___ SH131957 -11.3000 162.150 15 -1 -11.2383 162.107 TC -11.2837 162.178 1 3 89
1957016S11162 1957 8 SP MM NOT_NAMED 1957-01-17 00:00:00 TS -11.2808 162.292 main 56 56 O_____P___P___ jtwc_sh SH131957 -11.3000 162.300 15 -1 -11.2471 162.262 TC -11.2761 162.308 1 3 91
1957016S11162 1957 8 SP MM NOT_NAMED 1957-01-17 03:00:00 TS -11.2850 162.413 main 57 57 P_____P___P___ SH131957 -11.2925 162.408 15 -1 -11.2722 162.410 TC -11.2829 162.428 1 2 95
1957016S11162 1957 8 SP MM NOT_NAMED 1957-01-17 05:00:00 TS -11.2971 162.485 1000 bom main 60 60 P_____O___O___ SH131957 -11.2943 162.469 15 -1 -11.3000 162.500 1000 TC -11.3000 162.500 1 15 2 103
1957016S11162 1957 8 SP MM NOT_NAMED 1957-01-17 06:00:00 TS -11.3093 162.518 main 60 60 O_____P___P___ jtwc_sh SH131957 -11.3000 162.500 15 -1 -11.3236 162.538 TC -11.3137 162.533 1 2 115
1957016S11162 1957 8 SP MM NOT_NAMED 1957-01-17 09:00:00 TS -11.3627 162.621 main 74 74 P_____P___P___ SH131957 -11.3350 162.607 15 -1 -11.4098 162.650 TC -11.3708 162.621 1 2 125
1957016S11162 1957 8 SP MM NOT_NAMED 1957-01-17 12:00:00 TS -11.4410 162.713 main 80 80 O_____P___P___ jtwc_sh SH131957 -11.4000 162.700 15 -1 -11.5168 162.755 TC -11.4472 162.696 1 2 139
1957016S11162 1957 8 SP MM NOT_NAMED 1957-01-17 15:00:00 TS -11.5407 162.782 main 95 95 P_____P___P___ SH131957 -11.4925 162.758 17 -1 -11.6416 162.851 TC -11.5364 162.761 1 2 150
1957016S11162 1957 8 SP MM NOT_NAMED 1957-01-17 17:00:00 TS -11.6153 162.820 main 104 104 P_____P___O___ SH131957 -11.5640 162.786 19 -1 -11.7331 162.910 TC -11.6000 162.800 1 2 152
1957016S11162 1957 8 SP MM NOT_NAMED 1957-01-17 18:00:00 TS -11.6509 162.840 main 114 114 O_____P___P___ jtwc_sh SH131957 -11.6000 162.800 20 -1 -11.7810 162.937 TC -11.6226 162.822 1 2 150
1957016S11162 1957 8 SP MM NOT_NAMED 1957-01-17 21:00:00 TS -11.7562 162.899 main 129 129 P_____P___P___ SH131957 -11.7000 162.850 20 -1 -11.9318 163.010 TC -11.6928 162.885 1 2 153
1957016S11162 1957 8 SP MM NOT_NAMED 1957-01-18 00:00:00 TS -11.8675 162.952 main 144 144 O_____P___P___ jtwc_sh SH131957 -11.8000 162.900 20 -1 -12.0910 163.067 TC -11.7789 162.939 1 2 156
1957016S11162 1957 8 SP MM NOT_NAMED 1957-01-18 03:00:00 TS -11.9730 163.001 main 154 154 P_____P___P___ SH131957 -11.8700 162.958 20 -1 -12.2554 163.107 TC -11.8965 162.981 1 3 159
1957016S11162 1957 8 SP MM NOT_NAMED 1957-01-18 05:00:00 TS -12.0635 163.025 main 164 164 P_____P___O___ SH131957 -11.9438 162.989 20 -1 -12.3663 163.123 TC -12.0000 163.000 1 20 3 168
1957016S11162 1957 8 SP MM NOT_NAMED 1957-01-18 06:00:00 TS -12.1228 163.035 main 164 164 O_____P___P___ jtwc_sh SH131957 -12.0000 163.000 20 -1 -12.4219 163.128 TC -12.0694 163.013 1 19 5 175
1957016S11162 1957 8 SP MM NOT_NAMED 1957-01-18 09:00:00 TS -12.3639 163.046 main 194 194 P_____P___P___ SH131957 -12.2775 163.008 17 -1 -12.5874 163.127 TC -12.3131 163.043 1 18 5 0
1957016S11162 1957 8 SP MM NOT_NAMED 1957-01-18 12:00:00 TS -12.6330 163.039 main 215 215 O_____P___P___ jtwc_sh SH131957 -12.6000 163.000 15 -1 -12.7488 163.102 TC -12.5834 163.053 1 17 5 0
1957016S11162 1957 8 SP MM NOT_NAMED 1957-01-18 15:00:00 TS -12.8772 163.028 main 247 247 P_____P___P___ SH131957 -12.8800 163.015 15 -1 -12.9029 163.050 TC -12.8461 163.034 1 15 5 187
1957016S11162 1957 8 SP MM NOT_NAMED 1957-01-18 17:00:00 TS -13.0182 163.006 999 bom main 257 257 P_____O___O___ SH131957 -13.0364 163.011 15 -1 -13.0000 163.000 999 TC -13.0000 163.000 1 15 4 192
1957016S11162 1957 8 SP MM NOT_NAMED 1957-01-18 18:00:00 TS -13.0669 162.989 main 268 265 O_____P__OP___ jtwc_sh SH131957 -13.1000 163.000 15 -1 -13.0333 162.974 999 -13.0000 163.000 TC 30 999 -13.0510 162.979 1 15 3 211
1957016S11162 1957 8 SP MM NOT_NAMED 1957-01-18 21:00:00 TS -13.1840 162.907 main 276 274 P_____P__PP___ SH131957 -13.2150 162.930 15 -1 -13.1324 162.879 999 -13.2522 162.888 TC -13.1736 162.889 1 15 3 223
1957016S11162 1957 8 SP MM NOT_NAMED 1957-01-19 00:00:00 TS -13.2801 162.781 main 285 283 O_____P__PP___ jtwc_sh SH131957 -13.3000 162.800 15 -1 -13.2434 162.757 999 -13.5259 162.751 TC -13.2769 162.765 1 15 4 232
1957016S11162 1957 8 SP MM NOT_NAMED 1957-01-19 03:00:00 TS -13.4084 162.613 main 292 292 P_____P__PP___ SH131957 -13.4275 162.615 15 -1 -13.3830 162.611 999 -13.8193 162.591 TC -13.3955 162.613 1 15 4 230
1957016S11162 1957 8 SP MM NOT_NAMED 1957-01-19 05:00:00 TS -13.5180 162.486 999 bom main 303 303 P_____O__PO___ SH131957 -13.5360 162.472 15 -1 -13.5000 162.500 999 -14.0251 162.472 TC -13.5000 162.500 1 15 5 226
1957016S11162 1957 8 SP MM NOT_NAMED 1957-01-19 06:00:00 TS -13.5858 162.422 main 313 313 O_____P__PP___ jtwc_sh SH131957 -13.6000 162.400 15 -1 -13.5752 162.445 -14.1307 162.409 TC -13.5679 162.442 1 6 219
1957016S11162 1957 8 SP MM NOT_NAMED 1957-01-19 09:00:00 TS -13.8251 162.229 main 335 335 P_____P__PP___ SH131957 -13.8275 162.200 15 -1 -13.8423 162.265 -14.4582 162.208 TC -13.8030 162.252 1 7 216
1957016S11162 1957 8 SP MM NOT_NAMED 1957-01-19 12:00:00 TS -14.1109 162.027 main 369 369 O_____P__PP___ jtwc_sh SH131957 -14.1000 162.000 15 -1 -14.1654 162.062 -14.7999 161.990 TC -14.0782 162.045 1 7 214
1957016S11162 1957 8 SP MM NOT_NAMED 1957-01-19 15:00:00 TS -14.4225 161.814 main 403 403 P_____P__PP___ SH131957 -14.3850 161.792 15 -1 -14.5361 161.837 -15.1539 161.755 TC -14.3838 161.835 1 8 212
1957016S11162 1957 8 SP MM NOT_NAMED 1957-01-19 17:00:00 TS -14.6472 161.675 main 425 425 P_____P__PO___ SH131957 -14.5917 161.661 15 -1 -14.8056 161.676 -15.3960 161.590 TC -14.6000 161.700 1 8 211
1957016S11162 1957 8 SP MM NOT_NAMED 1957-01-19 18:00:00 TS -14.7598 161.611 main 448 448 O_____P__PP___ jtwc_sh SH131957 -14.7000 161.600 15 -1 -14.9462 161.593 -15.5186 161.505 TC -14.6930 161.650 1 8 207
1957016S11162 1957 8 SP MM NOT_NAMED 1957-01-19 21:00:00 TS -15.1100 161.436 main 483 483 P_____P__PP___ SH131957 -15.0350 161.450 15 -1 -15.3871 161.331 -15.8920 161.243 TC -14.9828 161.512 1 8 205
1957016S11162 1957 8 SP MM NOT_NAMED 1957-01-20 00:00:00 TS -15.4898 161.254 main 529 529 O_____P__PP___ jtwc_sh SH131957 -15.4000 161.300 15 -1 -15.8506 161.055 -16.2723 160.970 TC -15.3087 161.363 1 9 205
1957016S11162 1957 8 SP MM NOT_NAMED 1957-01-20 03:00:00 TS -15.8834 161.052 main 576 560 P_____P__PP___ SH131957 -15.7549 161.137 15 -1 -16.3282 160.765 -16.6578 160.688 TC -15.6956 161.170 1 9 207
1957016S11162 1957 8 SP MM NOT_NAMED 1957-01-20 05:00:00 TS -16.1803 160.887 main 560 558 P_____P__PO___ SH131957 -16.0354 160.992 15 -1 -16.6504 160.565 -16.9167 160.495 TC -16.0000 161.000 1 15 11 208
1957016S11162 1957 8 SP MM NOT_NAMED 1957-01-20 06:00:00 TS -16.3489 160.788 main 558 529 O_____P__PP___ jtwc_sh SH131957 -16.2000 160.900 15 -1 -16.8117 160.464 -17.0465 160.398 TC -16.1839 160.888 1 16 13 210
1957016S11162 1957 8 SP MM NOT_NAMED 1957-01-20 09:00:00 TS -16.9373 160.430 main 537 514 P_____P__PP___ SH131957 -16.8275 160.538 20 -1 -17.2926 160.153 -17.4369 160.102 TC -16.8014 160.493 1 19 14 211
1957016S11162 1957 8 SP MM NOT_NAMED 1957-01-20 12:00:00 TS -17.5572 160.020 main 517 511 O_____P__PP___ jtwc_sh SH131957 -17.5000 160.100 25 -1 -17.7628 159.837 -17.8271 159.803 TC -17.4660 160.045 1 23 14 214
1957016S11162 1957 8 SP EA NOT_NAMED 1957-01-20 15:00:00 TS -18.1252 159.597 main 523 518 P_____P__PP___ SH131957 -18.0875 159.643 27 -1 -18.2139 159.515 -18.2153 159.502 TC -18.1120 159.588 1 27 14 216
1957016S11162 1957 8 SP EA NOT_NAMED 1957-01-20 17:00:00 TS -18.4695 159.321 998 bom main 532 532 P_____O__PO___ SH131957 -18.4391 159.341 29 -1 -18.5000 159.300 998 -18.4723 159.300 TC -18.5000 159.300 1 30 13 218
1957016S11162 1957 8 SP EA NOT_NAMED 1957-01-20 18:00:00 TS -18.6193 159.188 main 537 537 O_____P__OP___ jtwc_sh SH131957 -18.6000 159.200 30 -1 -18.6274 159.183 998 -18.6000 159.200 TC 35 998 -18.6547 159.167 1 29 11 220
1957016S11162 1957 8 SP EA NOT_NAMED 1957-01-20 21:00:00 TS -19.0248 158.823 main 563 560 P_____P__PP___ SH131957 -19.0299 158.827 30 -1 -19.0053 158.827 998 -18.9683 158.872 TC 35 998 -19.0625 158.785 1 29 10 221
1957016S11162 1957 8 SP EA NOT_NAMED 1957-01-21 00:00:00 TS -19.3897 158.492 main 583 583 O_____P__PP___ jtwc_sh SH131957 -19.4000 158.500 30 -1 -19.3788 158.483 998 -19.3405 158.549 TC 35 998 -19.4171 158.443 1 28 9 220
1957016S11162 1957 8 SP EA NOT_NAMED 1957-01-21 03:00:00 TS -19.7395 158.181 main 609 608 P_____P__PP___ SH131957 -19.7350 158.162 30 -1 -19.7510 158.174 998 -19.7174 158.251 TC 35 998 -19.7591 158.154 1 28 9 218
1957016S11162 1957 8 SP EA NOT_NAMED 1957-01-21 05:00:00 TS -19.9819 158.005 998 bom main 627 626 P_____O__PO___ SH131957 -19.9688 157.975 30 -1 -20.0000 158.000 998 -19.9718 158.077 TC 35 998 -20.0000 158.000 1 28 9 212
1957016S11162 1957 8 SP EA NOT_NAMED 1957-01-21 06:00:00 TS -20.1088 157.931 main 636 636 O_____P__OP___ jtwc_sh SH131957 -20.1000 157.900 30 -1 -20.1031 157.927 -20.1000 158.000 TC 35 998 -20.1410 157.927 1 28 9 204
1957016S11162 1957 8 SP EA NOT_NAMED 1957-01-21 09:00:00 TS -20.5238 157.753 main 646 619 P_____P__PP___ SH131957 -20.5924 157.762 30 -1 -20.3956 157.750 -20.4572 157.738 TC -20.5813 157.752 1 28 9 198
1957016S11162 1957 8 SP EA NOT_NAMED 1957-01-21 12:00:00 TS -20.9484 157.638 main 619 588 O_____P__PP___ jtwc_sh SH131957 -21.1000 157.700 30 -1 -20.6886 157.631 -20.8156 157.518 TC -21.0377 157.643 1 29 8 193
1957016S11162 1957 8 SP EA NOT_NAMED 1957-01-21 15:00:00 TS -21.3430 157.554 main 588 558 P_____P__PP___ SH131957 -21.5075 157.628 30 -1 -21.0150 157.557 -21.1872 157.361 TC -21.4977 157.598 1 29 8 189
1957016S11162 1957 8 SP EA NOT_NAMED 1957-01-21 17:00:00 TS -21.6096 157.527 main 558 551 P_____P__PO___ SH131957 -21.7662 157.603 30 -1 -21.2675 157.528 -21.4482 157.304 TC -21.8000 157.600 1 30 8 186
1957016S11162 1957 8 SP EA NOT_NAMED 1957-01-21 18:00:00 TS -21.7478 157.519 main 551 517 O_____P__PP___ jtwc_sh SH131957 -21.9000 157.600 30 -1 -21.4079 157.518 -21.5839 157.291 TC -21.9473 157.587 1 29 9 0
1957016S11162 1957 8 SP EA NOT_NAMED 1957-01-21 21:00:00 TS -22.2005 157.528 main 517 504 P_____P__PP___ SH131957 -22.3500 157.613 27 -1 -21.9003 157.503 -22.0176 157.329 TC -22.3846 157.584 1 28 9 176
1957016S11162 1957 8 SP EA NOT_NAMED 1957-01-21 23:00:00 TS -22.5221 157.574 998 bom main 507 496 P_____O__PP___ SH131957 -22.6531 157.661 25 -1 -22.3000 157.500 998 -22.3331 157.427 TC -22.6714 157.621 1 27 10 173
1957016S11162 1957 8 SP EA NOT_NAMED 1957-01-22 00:00:00 TS -22.6907 157.604 main 496 485 O_____P__OP___ jtwc_sh SH131957 -22.8000 157.700 25 -1 -22.5402 157.464 998 -22.5000 157.500 TC 35 998 -22.8131 157.654 1 26 10 167
1957016S11162 1957 8 SP EA NOT_NAMED 1957-01-22 02:00:00 TS -23.0226 157.703 998 bom main 490 485 P_____O__PP___ SH131957 -23.0745 157.788 25 -1 -23.0000 157.500 998 -22.8714 157.687 TC 35 998 -23.0925 157.754 1 25 10 161
1957016S11162 1957 8 SP EA NOT_NAMED 1957-01-22 03:00:00 TS -23.1784 157.788 main 489 484 P_____P__PP___ SH131957 -23.2074 157.848 25 -1 -23.1868 157.623 998 -23.0603 157.801 TC 35 998 -23.2300 157.822 1 25 11 148
1957016S11162 1957 8 SP EA NOT_NAMED 1957-01-22 05:00:00 TS -23.4733 158.013 998 bom main 495 495 P_____O__PO___ SH131957 -23.4692 158.003 25 -1 -23.5000 158.000 998 -23.4280 158.060 TC 35 998 -23.5000 158.000 1 24 11 144
1957016S11162 1957 8 SP EA NOT_NAMED 1957-01-22 06:00:00 TS -23.6211 158.141 main 501 501 O_____P__OP___ jtwc_sh SH131957 -23.6000 158.100 25 -1 -23.6627 158.174 998 -23.6000 158.200 TC 35 998 -23.6323 158.111 1 23 12 137
1957016S11162 1957 8 SP EA NOT_NAMED 1957-01-22 09:00:00 TS -24.0478 158.587 main 537 535 P_____P__PP___ SH131957 -23.9978 158.467 22 -1 -24.1257 158.712 999 -24.0483 158.643 TC 32 999 -24.0193 158.526 1 22 12 133
1957016S11162 1957 8 SP EA NOT_NAMED 1957-01-22 12:00:00 TS -24.4425 159.102 main 579 577 O_____P__PP___ jtwc_sh SH131957 -24.4000 158.900 20 -1 -24.5298 159.242 1000 -24.4128 159.113 TC 30 1000 -24.3939 159.034 1 21 12 127
1957016S11162 1957 8 SP EA NOT_NAMED 1957-01-22 15:00:00 TS -24.7861 159.657 main 635 635 ______P__PP___ SH131957 -1 -24.8483 159.725 1001 -24.7210 159.602 TC 27 1001 -24.7595 159.604 1 20 12 124
1957016S11162 1957 8 SP EA NOT_NAMED 1957-01-22 17:00:00 TS -24.9739 159.981 1002 bom main 642 634 ______O__PO___ SH131957 -1 -25.0000 160.000 1002 -24.9085 159.933 TC 25 1001 -25.0000 160.000 1 20 10 122
1957016S11162 1957 8 SP MM NOT_NAMED 1957-01-22 18:00:00 TS -25.0415 160.115 main 634 618 ______P__O____ -1 -25.0553 160.120 1002 -25.0000 160.100 TC 25 1002 1 7 115
1957016S11162 1957 8 SP MM NOT_NAMED 1957-01-22 21:00:00 NR -25.1589 160.423 main 625 610 ______P_______ -1 -25.1589 160.423 1003 TC 1 6 110
1957016S11162 1957 8 SP MM NOT_NAMED 1957-01-22 23:00:00 NR -25.2000 160.600 1004 bom main 610 ______O_______ -1 -25.2000 160.600 1004 TC 1 5 105

Digital Typhoon Data and Search

About IBTrACS Database

This database is a web-friendly format of International Best Track Archive for Climate Stewardship (IBTrACS), a global best track data archive curated by NOAA dating back to 1842.

Updated: 2021-10-19